createdAt,value
2023-02-22T00:02:29.040Z,100.00
2023-02-22T00:05:20.047Z,100.00
2023-02-22T00:08:10.049Z,100.00
2023-02-22T00:11:00.691Z,100.00
2023-02-22T00:13:50.582Z,100.00
2023-02-22T00:16:39.114Z,100.00
2023-02-22T00:19:30.065Z,100.00
2023-02-22T00:22:19.166Z,100.00
2023-02-22T00:25:07.953Z,100.00
2023-02-22T00:27:58.164Z,100.00
2023-02-22T00:30:48.236Z,100.00
2023-02-22T00:33:37.456Z,100.00
2023-02-22T00:36:25.952Z,100.00
2023-02-22T00:39:14.398Z,100.00
2023-02-22T00:42:03.959Z,100.00
2023-02-22T00:44:53.804Z,100.00
2023-02-22T00:47:42.323Z,100.00
2023-02-22T00:50:32.231Z,100.00
2023-02-22T00:53:20.719Z,100.00
2023-02-22T00:56:09.158Z,100.00
2023-02-22T00:58:57.666Z,100.00
2023-02-22T01:01:47.594Z,100.00
2023-02-22T01:04:36.089Z,100.00
2023-02-22T01:07:24.609Z,100.00
2023-02-22T01:10:14.382Z,100.00
2023-02-22T01:13:04.863Z,100.00
2023-02-22T01:15:53.381Z,100.00
2023-02-22T01:18:43.207Z,100.00
2023-02-22T01:21:31.866Z,100.00
2023-02-22T01:24:20.531Z,100.00
2023-02-22T01:27:10.849Z,100.00
2023-02-22T01:29:59.296Z,100.00
2023-02-22T01:32:47.905Z,100.00
2023-02-22T01:35:40.864Z,100.00
2023-02-22T01:38:29.343Z,100.00
2023-02-22T01:41:18.564Z,100.00
2023-02-22T01:44:29.071Z,100.00
2023-02-22T01:47:17.569Z,100.00
2023-02-22T01:50:07.185Z,100.00
2023-02-22T01:52:57.130Z,100.00
2023-02-22T01:55:46.255Z,100.00
2023-02-22T01:58:36.697Z,100.00
2023-02-22T02:01:26.639Z,100.00
2023-02-22T02:04:17.620Z,100.00
2023-02-22T02:07:07.545Z,100.00
2023-02-22T02:10:00.010Z,100.00
2023-02-22T02:12:50.531Z,100.00
2023-02-22T02:15:39.258Z,100.00
2023-02-22T02:18:28.650Z,100.00
2023-02-22T02:21:35.543Z,100.00
2023-02-22T02:24:39.605Z,100.00
2023-02-22T02:27:35.162Z,100.00
2023-02-22T02:30:44.775Z,100.00
2023-02-22T02:33:36.167Z,100.00
2023-02-22T02:36:31.560Z,100.00
2023-02-22T02:39:26.957Z,100.00
2023-02-22T02:42:18.994Z,100.00
2023-02-22T02:45:10.959Z,100.00
2023-02-22T02:48:00.334Z,100.00
2023-02-22T02:50:50.910Z,100.00
2023-02-22T02:53:41.835Z,100.00
2023-02-22T02:56:30.935Z,100.00
2023-02-22T02:59:27.821Z,100.00
2023-02-22T03:02:29.181Z,100.00
2023-02-22T03:05:34.813Z,100.00
2023-02-22T03:08:31.327Z,100.00
2023-02-22T03:11:21.191Z,100.00
2023-02-22T03:14:17.721Z,100.00
2023-02-22T03:17:13.062Z,100.00
2023-02-22T03:20:09.668Z,100.00
2023-02-22T03:23:01.029Z,100.00
2023-02-22T03:25:53.307Z,100.00
2023-02-22T03:28:44.221Z,100.00
2023-02-22T03:31:38.242Z,100.00
2023-02-22T03:34:29.563Z,100.00
2023-02-22T03:37:19.589Z,100.00
2023-02-22T03:40:13.931Z,100.00
2023-02-22T03:43:07.673Z,100.00
2023-02-22T03:45:56.311Z,100.00
2023-02-22T03:48:47.812Z,100.00
2023-02-22T03:51:36.619Z,100.00
2023-02-22T03:54:25.122Z,100.00
2023-02-22T03:57:17.697Z,100.00
2023-02-22T04:00:09.992Z,100.00
2023-02-22T04:02:58.764Z,100.00
2023-02-22T04:05:47.435Z,100.00
2023-02-22T04:08:36.039Z,100.00
2023-02-22T04:11:24.622Z,100.00
2023-02-22T04:14:14.153Z,100.00
2023-02-22T04:17:03.994Z,100.00
2023-02-22T04:19:52.456Z,100.00
2023-02-22T04:22:41.224Z,100.00
2023-02-22T04:25:29.833Z,100.00
2023-02-22T04:28:18.435Z,100.00
2023-02-22T04:31:07.039Z,100.00
2023-02-22T04:33:56.904Z,100.00
2023-02-22T04:36:45.551Z,100.00
2023-02-22T04:39:33.974Z,100.00
2023-02-22T04:42:22.489Z,100.00
2023-02-22T04:45:11.473Z,100.00
2023-02-22T04:47:59.952Z,100.00
2023-02-22T04:50:51.197Z,100.00
2023-02-22T04:53:39.697Z,100.00
2023-02-22T04:56:28.497Z,100.00
2023-02-22T04:59:17.006Z,100.00
2023-02-22T05:02:05.944Z,100.00
2023-02-22T05:04:54.512Z,100.00
2023-02-22T05:07:44.412Z,100.00
2023-02-22T05:10:32.898Z,100.00
2023-02-22T05:13:21.429Z,100.00
2023-02-22T05:16:09.885Z,100.00
2023-02-22T05:18:58.403Z,100.00
2023-02-22T05:21:46.811Z,100.00
2023-02-22T05:24:37.116Z,100.00
2023-02-22T05:27:25.611Z,100.00
2023-02-22T05:30:14.584Z,100.00
2023-02-22T05:33:03.521Z,100.00
2023-02-22T05:35:52.047Z,100.00
2023-02-22T05:38:43.372Z,100.00
2023-02-22T05:41:33.408Z,100.00
2023-02-22T05:44:22.085Z,100.00
2023-02-22T05:47:10.605Z,100.00
2023-02-22T05:49:59.157Z,100.00
2023-02-22T05:52:48.598Z,100.00
2023-02-22T05:55:37.084Z,100.00
2023-02-22T05:58:26.923Z,100.00
2023-02-22T06:01:15.470Z,100.00
2023-02-22T06:04:04.255Z,100.00
2023-02-22T06:06:53.039Z,100.00
2023-02-22T06:09:41.575Z,100.00
2023-02-22T06:12:31.201Z,100.00
2023-02-22T06:15:22.188Z,100.00
2023-02-22T06:18:11.014Z,100.00
2023-02-22T06:21:00.093Z,100.00
2023-02-22T06:23:48.643Z,100.00
2023-02-22T06:26:37.128Z,100.00
2023-02-22T06:29:25.660Z,100.00
2023-02-22T06:32:15.676Z,100.00
2023-02-22T06:35:04.548Z,100.00
2023-02-22T06:37:53.219Z,100.00
2023-02-22T06:40:41.645Z,100.00
2023-02-22T06:43:30.176Z,100.00
2023-02-22T06:46:19.481Z,100.00
2023-02-22T06:49:09.311Z,100.00
2023-02-22T06:51:57.776Z,100.00
2023-02-22T06:54:46.264Z,100.00
2023-02-22T06:57:34.660Z,100.00
2023-02-22T07:00:25.191Z,100.00
2023-02-22T07:03:15.060Z,100.00
2023-02-22T07:06:05.675Z,100.00
2023-02-22T07:08:54.737Z,100.00
2023-02-22T07:11:43.670Z,100.00
2023-02-22T07:14:32.241Z,100.00
2023-02-22T07:17:20.699Z,100.00
2023-02-22T07:20:11.510Z,100.00
2023-02-22T07:23:01.580Z,100.00
2023-02-22T07:25:50.085Z,100.00
2023-02-22T07:28:38.544Z,100.00
2023-02-22T07:31:29.558Z,100.00
2023-02-22T07:34:18.287Z,100.00
2023-02-22T07:37:06.774Z,100.00
2023-02-22T07:39:57.227Z,100.00
2023-02-22T07:42:56.424Z,100.00
2023-02-22T07:45:45.573Z,100.00
2023-02-22T07:48:34.563Z,100.00
2023-02-22T07:51:23.043Z,100.00
2023-02-22T07:54:11.534Z,100.00
2023-02-22T07:57:03.385Z,100.00
2023-02-22T07:59:51.983Z,100.00
2023-02-22T08:02:40.418Z,100.00
2023-02-22T08:05:29.766Z,100.00
2023-02-22T08:08:19.922Z,100.00
2023-02-22T08:11:08.611Z,100.00
2023-02-22T08:13:58.464Z,100.00
2023-02-22T08:16:47.015Z,100.00
2023-02-22T08:19:35.511Z,100.00
2023-02-22T08:22:24.001Z,100.00
2023-02-22T08:25:13.008Z,100.00
2023-02-22T08:28:03.157Z,100.00
2023-02-22T08:30:53.375Z,100.00
2023-02-22T08:33:42.452Z,100.00
2023-02-22T08:36:32.926Z,100.00
2023-02-22T08:39:21.433Z,100.00
2023-02-22T08:42:10.349Z,100.00
2023-02-22T08:44:58.879Z,100.00
2023-02-22T08:47:48.911Z,99.15
2023-02-22T08:50:38.124Z,97.04
2023-02-22T08:53:26.659Z,95.87
2023-02-22T08:56:15.203Z,94.89
2023-02-22T08:59:03.700Z,92.94
2023-02-22T09:01:52.419Z,93.11
2023-02-22T09:04:42.329Z,91.55
2023-02-22T09:07:31.142Z,91.73
2023-02-22T09:10:21.487Z,90.85
2023-02-22T09:13:09.993Z,89.49
2023-02-22T09:15:58.530Z,89.15
2023-02-22T09:18:47.770Z,88.29
2023-02-22T09:21:37.671Z,88.59
2023-02-22T09:24:26.401Z,88.42
2023-02-22T09:27:14.948Z,87.14
2023-02-22T09:30:04.267Z,86.56
2023-02-22T09:32:54.402Z,86.21
2023-02-22T09:35:46.340Z,85.14
2023-02-22T09:38:37.111Z,84.93
2023-02-22T09:41:34.589Z,83.37
2023-02-22T09:44:29.699Z,83.39
2023-02-22T09:47:20.691Z,83.01
2023-02-22T09:50:15.629Z,82.35
2023-02-22T09:53:07.127Z,81.69
2023-02-22T09:55:59.804Z,81.47
2023-02-22T09:58:52.244Z,81.30
2023-02-22T10:01:43.433Z,80.55
2023-02-22T10:04:41.286Z,78.30
2023-02-22T10:07:33.167Z,77.91
2023-02-22T10:10:24.304Z,77.94
2023-02-22T10:13:24.434Z,77.16
2023-02-22T10:16:17.550Z,76.48
2023-02-22T10:19:18.707Z,74.89
2023-02-22T10:22:22.412Z,73.18
2023-02-22T10:25:13.732Z,72.09
2023-02-22T10:28:05.079Z,70.83
2023-02-22T10:30:59.038Z,71.13
2023-02-22T10:33:49.652Z,66.93
2023-02-22T10:36:39.213Z,66.53
2023-02-22T10:39:30.037Z,65.92
2023-02-22T10:42:18.581Z,65.13
2023-02-22T10:45:15.474Z,65.17
2023-02-22T10:48:11.647Z,65.21
2023-02-22T10:51:02.417Z,64.43
2023-02-22T10:53:59.490Z,64.57
2023-02-22T10:56:48.799Z,65.26
2023-02-22T10:59:39.191Z,65.33
2023-02-22T11:02:30.813Z,65.30
2023-02-22T11:05:31.161Z,66.17
2023-02-22T11:08:30.671Z,65.63
2023-02-22T11:11:25.074Z,65.51
2023-02-22T11:14:14.479Z,65.20
2023-02-22T11:17:08.214Z,64.50
2023-02-22T11:19:56.698Z,63.56
2023-02-22T11:22:46.582Z,63.74
2023-02-22T11:25:37.401Z,63.30
2023-02-22T11:28:32.824Z,62.84
2023-02-22T11:31:23.475Z,62.71
2023-02-22T11:34:31.521Z,62.41
2023-02-22T11:37:30.330Z,61.78
2023-02-22T11:40:22.747Z,61.03
2023-02-22T11:43:16.630Z,60.56
2023-02-22T11:46:08.274Z,60.33
2023-02-22T11:48:59.104Z,59.63
2023-02-22T11:51:55.031Z,59.43
2023-02-22T11:55:10.545Z,59.73
2023-02-22T11:58:08.743Z,58.48
2023-02-22T12:01:01.775Z,58.33
2023-02-22T12:04:18.451Z,57.88
2023-02-22T12:07:27.292Z,56.15
2023-02-22T12:10:25.078Z,53.58
2023-02-22T12:13:27.185Z,53.76
2023-02-22T12:16:22.637Z,54.28
2023-02-22T12:19:20.194Z,54.87
2023-02-22T12:22:11.524Z,54.55
2023-02-22T12:25:10.340Z,54.65
2023-02-22T12:28:05.750Z,54.94
2023-02-22T12:31:08.131Z,54.22
2023-02-22T12:34:02.051Z,53.58
2023-02-22T12:36:53.081Z,53.69
2023-02-22T12:39:53.537Z,54.01
2023-02-22T12:42:48.833Z,53.98
2023-02-22T12:45:42.076Z,54.60
2023-02-22T12:48:41.785Z,53.31
2023-02-22T12:51:33.901Z,52.87
2023-02-22T12:54:25.685Z,51.79
2023-02-22T12:57:20.197Z,51.16
2023-02-22T13:00:17.120Z,50.76
2023-02-22T13:03:22.294Z,52.10
2023-02-22T13:06:23.592Z,52.26
2023-02-22T13:09:27.778Z,51.17
2023-02-22T13:12:19.537Z,51.68
2023-02-22T13:15:12.768Z,52.00
2023-02-22T13:18:06.173Z,52.37
2023-02-22T13:21:00.844Z,52.43
2023-02-22T13:23:55.580Z,51.46
2023-02-22T13:26:48.121Z,51.22
2023-02-22T13:29:39.662Z,51.70
2023-02-22T13:32:38.419Z,51.95
2023-02-22T13:35:37.650Z,53.00
2023-02-22T13:39:07.373Z,53.25
2023-02-22T13:42:14.143Z,53.47
2023-02-22T13:45:22.124Z,53.27
2023-02-22T13:48:18.237Z,53.60
2023-02-22T13:51:16.901Z,53.75
2023-02-22T13:54:09.030Z,54.55
2023-02-22T13:56:57.978Z,54.12
2023-02-22T13:59:48.125Z,54.50
2023-02-22T14:02:58.565Z,54.97
2023-02-22T14:05:51.813Z,54.66
2023-02-22T14:08:47.033Z,55.05
2023-02-22T14:11:44.300Z,55.42
2023-02-22T14:14:32.768Z,56.37
2023-02-22T14:17:27.283Z,56.62
2023-02-22T14:20:35.282Z,56.33
2023-02-22T14:23:35.542Z,56.29
2023-02-22T14:26:27.509Z,57.49
2023-02-22T14:29:18.006Z,56.73
2023-02-22T14:32:08.280Z,56.97
2023-02-22T14:35:00.754Z,56.99
2023-02-22T14:37:52.167Z,58.31
2023-02-22T14:40:41.291Z,57.54
2023-02-22T14:43:29.973Z,58.69
2023-02-22T14:46:23.055Z,58.62
2023-02-22T14:49:18.879Z,59.26
2023-02-22T14:52:19.258Z,59.46
2023-02-22T14:55:15.515Z,59.83
2023-02-22T14:58:09.802Z,60.32
2023-02-22T15:00:58.367Z,60.97
2023-02-22T15:03:51.466Z,60.49
2023-02-22T15:06:45.012Z,60.83
2023-02-22T15:09:37.440Z,60.29
2023-02-22T15:12:29.983Z,61.17
2023-02-22T15:15:22.062Z,61.79
2023-02-22T15:18:20.042Z,63.04
2023-02-22T15:21:13.469Z,62.95
2023-02-22T15:24:03.618Z,63.72
2023-02-22T15:27:01.588Z,63.62
2023-02-22T15:29:52.363Z,63.95
2023-02-22T15:32:56.992Z,63.96
2023-02-22T15:35:55.298Z,63.31
2023-02-22T15:38:49.115Z,62.81
2023-02-22T15:41:37.625Z,63.19
2023-02-22T15:44:28.500Z,63.56
2023-02-22T15:47:18.891Z,63.34
2023-02-22T15:50:21.136Z,63.12
2023-02-22T15:53:22.675Z,63.02
2023-02-22T15:56:16.744Z,64.05
2023-02-22T15:59:10.273Z,63.95
2023-02-22T16:02:00.671Z,64.56
2023-02-22T16:04:59.283Z,64.32
2023-02-22T16:07:50.008Z,64.76
2023-02-22T16:10:41.214Z,64.43
2023-02-22T16:13:34.373Z,64.74
2023-02-22T16:16:24.351Z,65.49
2023-02-22T16:19:32.778Z,65.32
2023-02-22T16:22:28.046Z,65.84
2023-02-22T16:25:27.370Z,66.29
2023-02-22T16:28:30.704Z,66.80
2023-02-22T16:31:21.854Z,66.72
2023-02-22T16:34:10.905Z,67.20
2023-02-22T16:37:01.359Z,67.52
2023-02-22T16:39:51.718Z,67.28
2023-02-22T16:42:40.237Z,67.79
2023-02-22T16:45:28.861Z,68.40
2023-02-22T16:48:20.012Z,68.69
2023-02-22T16:51:10.788Z,68.69
2023-02-22T16:54:00.642Z,68.41
2023-02-22T16:56:49.122Z,68.73
2023-02-22T16:59:40.078Z,69.27
2023-02-22T17:02:28.540Z,68.99
2023-02-22T17:05:17.755Z,69.09
2023-02-22T17:08:06.977Z,68.90
2023-02-22T17:10:57.525Z,69.49
2023-02-22T17:13:51.470Z,70.33
2023-02-22T17:16:39.923Z,71.01
2023-02-22T17:19:28.783Z,71.49
2023-02-22T17:22:18.709Z,72.36
2023-02-22T17:25:20.346Z,72.66
2023-02-22T17:28:10.677Z,72.94
2023-02-22T17:31:01.620Z,73.10
2023-02-22T17:33:51.337Z,73.90
2023-02-22T17:36:40.167Z,74.31
2023-02-22T17:39:28.704Z,75.28
2023-02-22T17:42:17.198Z,76.15
2023-02-22T17:45:08.983Z,76.61
2023-02-22T17:47:59.074Z,76.91
2023-02-22T17:50:49.313Z,77.29
2023-02-22T17:53:38.403Z,77.54
2023-02-22T17:56:26.901Z,77.68
2023-02-22T17:59:15.650Z,78.06
2023-02-22T18:02:05.660Z,78.13
2023-02-22T18:04:54.280Z,78.38
2023-02-22T18:07:42.782Z,78.69
2023-02-22T18:10:31.432Z,79.37
2023-02-22T18:13:19.885Z,79.75
2023-02-22T18:16:09.802Z,79.87
2023-02-22T18:19:01.541Z,80.34
2023-02-22T18:21:50.157Z,80.65
2023-02-22T18:24:38.628Z,81.14
2023-02-22T18:27:30.128Z,81.45
2023-02-22T18:30:18.692Z,81.65
2023-02-22T18:33:11.102Z,82.04
2023-02-22T18:36:00.910Z,82.73
2023-02-22T18:38:50.722Z,83.22
2023-02-22T18:41:39.482Z,83.57
2023-02-22T18:44:28.155Z,83.92
2023-02-22T18:47:16.726Z,83.94
2023-02-22T18:50:05.645Z,84.71
2023-02-22T18:52:55.661Z,84.90
2023-02-22T18:55:44.158Z,85.15
2023-02-22T18:58:33.339Z,85.55
2023-02-22T19:01:22.042Z,85.72
2023-02-22T19:04:12.651Z,85.88
2023-02-22T19:07:01.175Z,86.04
2023-02-22T19:09:51.658Z,86.49
2023-02-22T19:12:40.208Z,86.64
2023-02-22T19:15:28.676Z,86.62
2023-02-22T19:18:17.179Z,86.37
2023-02-22T19:21:08.926Z,86.92
2023-02-22T19:23:57.634Z,86.97
2023-02-22T19:26:50.678Z,87.17
2023-02-22T19:29:39.926Z,87.30
2023-02-22T19:32:28.535Z,87.58
2023-02-22T19:35:26.145Z,88.00
2023-02-22T19:38:15.429Z,88.18
2023-02-22T19:41:10.238Z,88.30
2023-02-22T19:44:01.867Z,89.04
2023-02-22T19:46:50.342Z,89.06
2023-02-22T19:49:40.964Z,89.75
2023-02-22T19:52:29.882Z,89.78
2023-02-22T19:55:18.346Z,89.83
2023-02-22T19:58:06.866Z,90.65
2023-02-22T20:00:56.778Z,90.66
2023-02-22T20:03:45.779Z,92.02
2023-02-22T20:06:40.114Z,91.97
2023-02-22T20:09:36.224Z,92.09
2023-02-22T20:12:24.719Z,92.25
2023-02-22T20:15:13.591Z,92.33
2023-02-22T20:18:03.417Z,93.01
2023-02-22T20:20:51.925Z,94.17
2023-02-22T20:23:44.278Z,94.38
2023-02-22T20:26:37.234Z,94.80
2023-02-22T20:29:29.624Z,95.38
2023-02-22T20:32:18.552Z,95.33
2023-02-22T20:35:09.433Z,95.65
2023-02-22T20:37:57.968Z,95.81
2023-02-22T20:40:46.795Z,96.03
2023-02-22T20:43:36.441Z,96.02
2023-02-22T20:46:26.639Z,96.05
2023-02-22T20:49:17.074Z,95.37
2023-02-22T20:52:06.960Z,95.26
2023-02-22T20:54:56.318Z,96.09
2023-02-22T20:57:44.773Z,97.23
2023-02-22T21:00:33.277Z,98.48
2023-02-22T21:03:21.974Z,98.61
2023-02-22T21:06:11.791Z,97.99
2023-02-22T21:09:02.768Z,96.47
2023-02-22T21:11:51.393Z,95.97
2023-02-22T21:14:40.443Z,96.53
2023-02-22T21:17:30.738Z,96.02
2023-02-22T21:20:21.924Z,96.60
2023-02-22T21:23:11.129Z,96.51
2023-02-22T21:26:01.004Z,97.51
2023-02-22T21:28:51.728Z,98.72
2023-02-22T21:31:40.531Z,99.82
2023-02-22T21:34:29.726Z,100.00
2023-02-22T21:37:18.249Z,100.00
2023-02-22T21:40:11.882Z,100.00
2023-02-22T21:43:01.959Z,100.00
2023-02-22T21:45:50.687Z,100.00
2023-02-22T21:48:39.810Z,100.00
2023-02-22T21:51:31.864Z,100.00
2023-02-22T21:54:20.683Z,100.00
2023-02-22T21:57:09.732Z,100.00
2023-02-22T21:59:59.672Z,100.00
2023-02-22T22:02:51.809Z,100.00
2023-02-22T22:05:45.156Z,100.00
2023-02-22T22:08:36.045Z,100.00
2023-02-22T22:11:25.212Z,100.00
2023-02-22T22:14:14.541Z,100.00
2023-02-22T22:17:05.876Z,100.00
2023-02-22T22:19:54.438Z,100.00
2023-02-22T22:22:45.324Z,100.00
2023-02-22T22:25:38.076Z,100.00
2023-02-22T22:28:26.899Z,100.00
2023-02-22T22:31:17.316Z,100.00
2023-02-22T22:34:07.669Z,100.00
2023-02-22T22:36:58.035Z,100.00
2023-02-22T22:39:46.535Z,100.00
2023-02-22T22:42:34.977Z,100.00
2023-02-22T22:45:23.472Z,100.00
2023-02-22T22:48:14.912Z,100.00
2023-02-22T22:51:09.346Z,100.00
2023-02-22T22:54:00.301Z,100.00
2023-02-22T22:56:49.019Z,100.00
2023-02-22T22:59:37.578Z,100.00
2023-02-22T23:02:26.127Z,100.00
2023-02-22T23:05:17.285Z,100.00
2023-02-22T23:08:10.628Z,100.00
2023-02-22T23:10:59.201Z,100.00
2023-02-22T23:13:47.677Z,100.00
2023-02-22T23:16:36.347Z,100.00
2023-02-22T23:19:24.913Z,100.00
2023-02-22T23:22:14.344Z,100.00
2023-02-22T23:25:04.717Z,100.00
2023-02-22T23:27:54.706Z,100.00
2023-02-22T23:30:43.227Z,100.00
2023-02-22T23:33:32.047Z,100.00
2023-02-22T23:36:21.049Z,100.00
2023-02-22T23:39:09.529Z,100.00
2023-02-22T23:42:00.010Z,100.00
2023-02-22T23:44:49.145Z,100.00
2023-02-22T23:47:38.462Z,100.00
2023-02-22T23:50:28.957Z,100.00
2023-02-22T23:53:17.476Z,100.00
2023-02-22T23:56:10.027Z,100.00
2023-02-22T23:58:59.966Z,100.00
